Time;durP1;ratioP1;P1;durP2;ratioP2;P2;SDS_P1;SDS_P2;PMS_P1;PMS_P2;Temp;Humidity;BMP_temperature;BMP_pressure;BME280_temperature;BME280_humidity;BME280_pressure;Samples;Min_cycle;Max_cycle;Signal;HPM_P1;HPM_P2
2022/11/01 00:01:53;;;;;;;6.50;3.92;;;22.50;51.70;21.60;100681.00;;;;5053014;28;20555;-73
2022/11/01 00:04:19;;;;;;;5.10;4.35;;;22.50;51.70;21.60;100674.00;;;;5037454;28;20071;-72
2022/11/01 00:06:45;;;;;;;5.72;4.53;;;22.50;51.70;21.60;100668.00;;;;5069349;28;20036;-73
2022/11/01 00:09:10;;;;;;;7.87;4.00;;;22.40;51.60;21.60;100666.00;;;;5080181;28;20115;-73
2022/11/01 00:11:36;;;;;;;5.83;4.57;;;22.50;51.70;21.60;100667.00;;;;5052160;28;20991;-73
2022/11/01 00:14:02;;;;;;;7.18;4.53;;;22.40;51.60;21.60;100653.00;;;;5069460;28;20039;-73
2022/11/01 00:16:28;;;;;;;6.50;4.27;;;22.50;51.70;21.60;100656.00;;;;5071689;28;20474;-73
2022/11/01 00:18:54;;;;;;;5.33;4.30;;;22.50;51.60;21.60;100656.00;;;;5068529;28;20458;-72
2022/11/01 00:21:19;;;;;;;6.60;4.57;;;22.50;51.60;21.60;100654.00;;;;5069922;28;20881;-73
2022/11/01 00:23:45;;;;;;;7.13;4.37;;;22.60;51.70;21.60;100658.00;;;;5049524;28;20504;-73
2022/11/01 00:26:19;;;;;;;5.85;4.10;;;22.50;51.60;21.60;100647.00;;;;5052218;28;20028;-73
2022/11/01 00:28:45;;;;;;;6.25;4.15;;;22.50;51.60;21.60;100660.00;;;;5050698;28;20052;-73
2022/11/01 00:31:11;;;;;;;7.13;4.47;;;22.40;51.50;21.60;100663.00;;;;5051534;28;20610;-73
2022/11/01 00:33:38;;;;;;;7.80;4.20;;;22.50;51.60;21.60;100673.00;;;;5050908;28;20032;-73
2022/11/01 00:36:04;;;;;;;5.68;4.07;;;22.50;51.60;21.60;100675.00;;;;5069962;28;20046;-73
2022/11/01 00:38:30;;;;;;;6.93;4.03;;;22.50;51.60;21.60;100666.00;;;;5068933;28;20504;-73
2022/11/01 00:40:55;;;;;;;7.93;4.80;;;22.50;51.60;21.60;100671.00;;;;5070190;28;20028;-72
2022/11/01 00:43:21;;;;;;;8.63;4.20;;;22.50;51.60;21.60;100662.00;;;;5069446;28;20029;-73
2022/11/01 00:45:47;;;;;;;5.93;3.78;;;22.50;51.60;21.60;100663.00;;;;5051412;28;20054;-73
2022/11/01 00:48:13;;;;;;;5.72;4.22;;;22.50;51.60;21.60;100666.00;;;;5069340;28;20031;-72
2022/11/01 00:50:39;;;;;;;6.72;3.95;;;22.50;51.50;21.60;100653.00;;;;5068899;28;20047;-73
2022/11/01 00:53:05;;;;;;;6.18;3.95;;;22.50;51.50;21.60;100654.00;;;;5048403;28;20471;-73
2022/11/01 00:55:31;;;;;;;5.72;3.92;;;22.50;51.50;21.60;100652.00;;;;5073397;28;20027;-73
2022/11/01 00:57:57;;;;;;;6.67;4.07;;;22.50;51.50;21.60;100645.00;;;;5072611;28;20025;-73
2022/11/01 01:00:22;;;;;;;7.03;4.17;;;22.50;51.50;21.60;100640.00;;;;5072988;28;20111;-72
2022/11/01 01:02:48;;;;;;;7.93;4.38;;;22.50;51.50;21.60;100632.00;;;;5054742;28;20037;-72
2022/11/01 01:05:14;;;;;;;6.03;3.73;;;22.50;51.50;21.60;100631.00;;;;5073196;28;20435;-72
2022/11/01 01:07:40;;;;;;;5.63;4.07;;;22.50;51.50;21.60;100631.00;;;;5071777;28;20083;-72
2022/11/01 01:10:06;;;;;;;8.20;4.20;;;22.50;51.50;21.60;100627.00;;;;5055333;28;20031;-73
2022/11/01 01:12:32;;;;;;;5.50;4.20;;;22.50;51.50;21.60;100623.00;;;;5054496;28;20091;-72
2022/11/01 01:14:57;;;;;;;7.00;4.20;;;22.50;51.50;21.60;100615.00;;;;5073663;28;20037;-72
2022/11/01 01:17:23;;;;;;;7.10;4.05;;;22.50;51.50;21.60;100608.00;;;;5072019;28;20025;-73
2022/11/01 01:19:49;;;;;;;6.03;3.40;;;22.40;51.40;21.60;100595.00;;;;5073387;28;20370;-73
2022/11/01 01:22:15;;;;;;;5.37;3.77;;;22.40;51.50;21.60;100594.00;;;;5072230;28;20462;-72
2022/11/01 01:24:44;;;;;;;7.93;4.20;;;22.50;51.50;21.60;100598.00;;;;5055082;28;20138;-72
2022/11/01 01:27:11;;;;;;;6.82;4.20;;;22.40;51.50;21.60;100596.00;;;;5051254;28;21082;-73
2022/11/01 01:29:40;;;;;;;6.50;4.00;;;22.50;51.50;21.60;100593.00;;;;5054877;28;20129;-73
2022/11/01 01:32:07;;;;;;;5.75;3.95;;;22.40;51.40;21.60;100592.00;;;;5051795;28;20036;-72
2022/11/01 01:34:33;;;;;;;7.35;4.53;;;22.40;51.40;21.60;100579.00;;;;5071872;28;20462;-72
2022/11/01 01:36:59;;;;;;;5.63;4.23;;;22.50;51.50;21.60;100566.00;;;;5072174;28;20032;-73
2022/11/01 01:39:24;;;;;;;5.70;3.47;;;22.50;51.50;21.60;100566.00;;;;5072362;28;20507;-72
2022/11/01 01:41:56;;;;;;;5.40;3.63;;;22.50;51.50;21.60;100573.00;;;;5071562;28;20486;-73
2022/11/01 01:44:48;;;;;;;7.93;3.90;;;22.50;52.20;21.50;100565.00;;;;5055444;28;20838;-73
2022/11/01 01:47:25;;;;;;;5.82;4.00;;;22.50;51.50;21.50;100552.00;;;;5070039;28;20044;-73
2022/11/01 01:50:04;;;;;;;5.05;3.63;;;22.50;51.40;21.50;100554.00;;;;5052763;28;20466;-72
2022/11/01 01:52:32;;;;;;;4.90;3.63;;;22.40;51.40;21.50;100547.00;;;;5052371;28;20600;-72
2022/11/01 01:54:59;;;;;;;6.32;4.13;;;22.40;51.40;21.50;100543.00;;;;5054515;28;20032;-73
2022/11/01 01:57:24;;;;;;;5.25;3.40;;;22.40;51.40;21.60;100542.00;;;;5053463;28;20107;-73
2022/11/01 01:59:51;;;;;;;7.90;4.00;;;22.50;51.50;21.50;100553.00;;;;5054519;28;20381;-73
2022/11/01 02:02:17;;;;;;;7.97;3.88;;;22.50;51.50;21.60;100548.00;;;;5052068;28;20439;-73
2022/11/01 02:04:48;;;;;;;7.32;3.63;;;22.40;51.40;21.50;100547.00;;;;5053849;28;20032;-73
2022/11/01 02:07:14;;;;;;;5.15;3.58;;;22.40;51.40;21.60;100547.00;;;;5037724;28;20043;-73
2022/11/01 02:09:39;;;;;;;6.10;3.03;;;22.40;51.40;21.50;100537.00;;;;5054395;28;20033;-73
2022/11/01 02:12:05;;;;;;;5.10;3.50;;;22.40;51.40;21.50;100537.00;;;;5036706;28;20577;-73
2022/11/01 02:14:31;;;;;;;5.37;3.67;;;22.50;51.40;21.60;100526.00;;;;5057468;28;20095;-73
2022/11/01 02:17:03;;;;;;;7.03;3.90;;;22.50;51.40;21.50;100519.00;;;;5053382;28;20103;-73
2022/11/01 02:20:08;;;;;;;5.10;3.60;;;22.50;51.40;21.50;100537.00;;;;5036007;28;20025;-73
2022/11/01 02:22:55;;;;;;;7.00;3.75;;;22.40;51.30;21.50;100549.00;;;;5051473;28;20398;-73
2022/11/01 02:25:35;;;;;;;5.53;3.40;;;22.50;51.40;21.50;100539.00;;;;5071149;28;20029;-73
2022/11/01 02:28:33;;;;;;;5.00;3.45;;;22.40;51.30;21.50;100545.00;;;;5052787;28;20116;-73
2022/11/01 02:31:24;;;;;;;5.05;3.33;;;22.40;51.40;21.50;100543.00;;;;5051875;28;20031;-73
2022/11/01 02:33:56;;;;;;;5.47;3.63;;;22.50;51.40;21.50;100554.00;;;;5069545;28;20035;-73
2022/11/01 02:36:33;;;;;;;4.68;3.00;;;22.40;51.30;21.50;100534.00;;;;5053884;28;20474;-73
2022/11/01 02:39:02;;;;;;;6.40;3.83;;;22.40;51.30;21.50;100543.00;;;;5052731;28;20526;-72
2022/11/01 02:41:50;;;;;;;4.95;3.50;;;22.40;51.40;21.50;100531.00;;;;5034059;28;20536;-73
2022/11/01 02:44:19;;;;;;;5.25;3.40;;;22.40;51.40;21.50;100527.00;;;;5037171;28;20031;-73
2022/11/01 02:47:00;;;;;;;6.80;3.63;;;22.40;51.40;21.50;100527.00;;;;5052200;28;20016;-72
2022/11/01 02:49:40;;;;;;;3.88;3.25;;;22.50;51.40;21.50;100526.00;;;;5040665;28;20044;-73
2022/11/01 02:52:12;;;;;;;5.95;3.00;;;22.40;51.30;21.50;100531.00;;;;5035133;28;20028;-73
2022/11/01 02:54:43;;;;;;;6.97;3.45;;;22.40;51.30;21.50;100534.00;;;;5056046;28;20031;-73
2022/11/01 02:57:36;;;;;;;4.35;3.17;;;22.40;51.30;21.50;100538.00;;;;5057694;28;20048;-73
2022/11/01 03:00:25;;;;;;;4.97;2.90;;;22.40;51.30;21.50;100539.00;;;;5064124;28;20024;-73
2022/11/01 03:03:28;;;;;;;6.00;3.72;;;22.40;51.40;21.50;100532.00;;;;5062384;28;20120;-73
2022/11/01 03:06:01;;;;;;;8.73;3.30;;;22.40;51.40;21.50;100544.00;;;;5050965;28;20036;-72
2022/11/01 03:08:53;;;;;;;5.88;3.50;;;22.30;51.30;21.50;100535.00;;;;5070295;28;20033;-72
2022/11/01 03:11:25;;;;;;;5.95;3.28;;;22.40;51.30;21.50;100528.00;;;;5033569;28;20040;-72
2022/11/01 03:14:12;;;;;;;8.20;3.05;;;22.40;51.30;21.50;100537.00;;;;5055796;28;20389;-73
2022/11/01 03:16:57;;;;;;;6.50;3.30;;;22.40;51.40;21.50;100528.00;;;;5068885;28;20048;-72
2022/11/01 03:19:33;;;;;;;3.97;2.85;;;22.40;51.40;21.50;100535.00;;;;5053471;28;20036;-72
2022/11/01 03:22:32;;;;;;;4.38;2.83;;;22.40;51.40;21.50;100537.00;;;;5070988;28;20028;-72
2022/11/01 03:28:11;;;;;;;4.38;3.10;;;22.40;51.40;21.40;100539.00;;;;5052351;28;20047;-72
2022/11/01 03:30:41;;;;;;;5.47;2.88;;;22.40;51.40;21.40;100525.00;;;;5052583;28;20021;-72
2022/11/01 03:33:07;;;;;;;4.85;2.88;;;22.40;51.50;21.40;100533.00;;;;5035761;28;20492;-72
2022/11/01 03:35:36;;;;;;;4.30;3.23;;;22.30;51.40;21.50;100526.00;;;;5044898;28;20032;-72
2022/11/01 03:38:06;;;;;;;5.13;2.80;;;22.40;51.50;21.50;100533.00;;;;5037395;28;20107;-73
2022/11/01 03:40:32;;;;;;;5.60;3.28;;;22.40;51.40;21.50;100533.00;;;;5052367;28;20135;-72
2022/11/01 03:43:05;;;;;;;5.40;3.13;;;22.40;51.40;21.50;100536.00;;;;5054807;28;20016;-73
2022/11/01 03:45:31;;;;;;;4.03;3.00;;;22.40;51.40;21.50;100535.00;;;;5060368;28;20190;-72
2022/11/01 03:47:57;;;;;;;4.05;2.60;;;22.40;51.40;21.50;100528.00;;;;5051322;28;20055;-72
2022/11/01 03:50:25;;;;;;;6.47;2.77;;;22.30;51.40;21.50;100527.00;;;;5052566;28;20037;-73
2022/11/01 03:52:51;;;;;;;7.57;3.15;;;22.30;51.40;21.50;100520.00;;;;5069192;28;20070;-73
2022/11/01 03:55:17;;;;;;;3.83;2.70;;;22.40;51.40;21.50;100528.00;;;;5070689;28;20052;-73
2022/11/01 03:57:46;;;;;;;5.22;3.08;;;22.40;51.40;21.50;100533.00;;;;5069238;28;20352;-73
2022/11/01 04:00:15;;;;;;;5.88;3.13;;;22.40;51.40;21.50;100535.00;;;;5067038;28;20033;-73
2022/11/01 04:02:42;;;;;;;3.80;2.70;;;22.40;51.40;21.50;100542.00;;;;5044578;28;20029;-73
2022/11/01 04:05:08;;;;;;;3.58;2.63;;;22.40;51.40;21.50;100537.00;;;;5052807;28;20028;-73
2022/11/01 04:07:34;;;;;;;3.47;2.40;;;22.40;51.40;21.50;100541.00;;;;5069088;28;20398;-73
2022/11/01 04:10:00;;;;;;;3.60;2.47;;;22.40;51.40;21.50;100534.00;;;;5070493;28;20024;-73
2022/11/01 04:12:26;;;;;;;3.90;3.05;;;22.40;51.40;21.50;100541.00;;;;5053289;28;20043;-72
2022/11/01 04:20:34;;;;;;;4.65;2.58;;;22.40;51.30;21.50;100547.00;;;;5070201;28;20035;-73
2022/11/01 04:23:06;;;;;;;3.95;2.70;;;22.40;51.40;21.50;100547.00;;;;5068697;28;20024;-73
2022/11/01 04:25:32;;;;;;;4.82;2.65;;;22.40;51.40;21.50;100551.00;;;;5062072;28;20032;-73
2022/11/01 04:27:58;;;;;;;4.25;2.90;;;22.40;51.40;21.50;100552.00;;;;5049816;28;20027;-73
2022/11/01 04:30:25;;;;;;;5.70;2.67;;;22.40;51.40;21.50;100555.00;;;;5073842;28;20044;-73
2022/11/01 04:32:51;;;;;;;6.30;3.22;;;22.40;51.40;21.50;100553.00;;;;5054682;28;20017;-73
2022/11/01 04:35:16;;;;;;;3.00;2.30;;;22.20;51.30;21.50;100565.00;;;;5070590;28;20034;-73
2022/11/01 04:37:42;;;;;;;8.43;2.63;;;22.40;51.40;21.50;100562.00;;;;5054705;28;20092;-72
2022/11/01 04:40:09;;;;;;;5.68;2.50;;;22.40;51.40;21.50;100559.00;;;;5082823;28;20115;-73
2022/11/01 04:42:35;;;;;;;5.50;2.63;;;22.40;51.40;21.50;100558.00;;;;5072131;28;20071;-73
2022/11/01 04:45:01;;;;;;;5.47;2.38;;;22.40;51.30;21.50;100556.00;;;;5056203;28;20153;-73
2022/11/01 04:47:27;;;;;;;5.38;3.10;;;22.40;51.40;21.50;100558.00;;;;5072271;28;20067;-72
2022/11/01 04:49:53;;;;;;;4.33;2.97;;;22.40;51.40;21.50;100566.00;;;;5056208;28;20029;-73
2022/11/01 04:52:19;;;;;;;3.97;2.63;;;22.40;51.30;21.50;100571.00;;;;5072770;28;20614;-72
2022/11/01 04:54:44;;;;;;;4.10;2.73;;;22.40;51.30;21.40;100566.00;;;;5073141;28;20108;-72
2022/11/01 04:57:21;;;;;;;5.20;2.27;;;22.40;52.00;21.40;100566.00;;;;5072468;28;20071;-73
2022/11/01 04:59:48;;;;;;;5.35;2.75;;;22.40;51.30;21.40;100573.00;;;;5077578;28;20020;-72
2022/11/01 05:02:14;;;;;;;3.72;2.33;;;22.40;51.20;21.40;100572.00;;;;5073193;28;20044;-72
2022/11/01 05:04:40;;;;;;;7.40;2.92;;;22.40;51.30;21.40;100576.00;;;;5072557;28;20996;-72
2022/11/01 05:07:06;;;;;;;3.30;2.20;;;22.30;52.00;21.40;100579.00;;;;5072119;28;20042;-73
2022/11/01 05:09:31;;;;;;;5.50;2.70;;;22.30;51.30;21.40;100576.00;;;;5055647;28;20860;-72
2022/11/01 05:11:57;;;;;;;5.00;2.33;;;22.40;51.30;21.40;100576.00;;;;5069852;28;20530;-72
2022/11/01 05:14:23;;;;;;;5.13;2.60;;;22.30;51.40;21.40;100577.00;;;;5073015;28;20103;-72
2022/11/01 05:16:49;;;;;;;6.70;3.27;;;22.40;51.40;21.40;100580.00;;;;5073893;28;20046;-72
2022/11/01 05:19:15;;;;;;;4.67;2.63;;;22.30;51.40;21.40;100583.00;;;;5072009;28;20553;-73
2022/11/01 05:21:41;;;;;;;4.22;2.13;;;22.30;51.40;21.40;100590.00;;;;5053815;28;20055;-72
2022/11/01 05:24:07;;;;;;;5.47;2.33;;;22.30;51.40;21.30;100593.00;;;;5055516;28;20055;-72
2022/11/01 05:26:33;;;;;;;5.07;2.60;;;22.30;51.50;21.30;100589.00;;;;5055771;28;20290;-73
2022/11/01 05:28:58;;;;;;;5.60;2.00;;;22.30;51.50;21.30;100604.00;;;;5050629;28;20128;-72
2022/11/01 05:31:24;;;;;;;4.07;2.33;;;22.30;51.50;21.30;100598.00;;;;5072284;28;20043;-72
2022/11/01 05:33:50;;;;;;;5.57;2.20;;;22.30;51.60;21.30;100600.00;;;;5072261;28;20431;-72
2022/11/01 05:36:16;;;;;;;3.97;2.37;;;22.30;51.60;21.30;100599.00;;;;5072062;28;20469;-72
2022/11/01 05:38:42;;;;;;;5.20;2.30;;;22.30;51.60;21.30;100606.00;;;;5071699;28;20107;-72
2022/11/01 05:41:09;;;;;;;5.07;2.40;;;22.30;51.70;21.30;100604.00;;;;5071718;28;20051;-72
2022/11/01 05:43:34;;;;;;;5.30;2.30;;;22.30;51.70;21.30;100607.00;;;;5071167;28;20394;-72
2022/11/01 05:46:04;;;;;;;4.40;2.43;;;22.30;51.70;21.30;100606.00;;;;5072497;28;20453;-73
2022/11/01 05:48:30;;;;;;;2.33;2.05;;;22.30;51.70;21.30;100614.00;;;;5047940;28;20548;-73
2022/11/01 05:50:56;;;;;;;5.07;2.23;;;22.30;51.80;21.30;100614.00;;;;5071862;28;20024;-73
2022/11/01 05:53:22;;;;;;;4.67;2.50;;;22.30;51.80;21.40;100620.00;;;;5071065;28;20063;-72
2022/11/01 05:55:47;;;;;;;4.97;2.10;;;22.30;51.80;21.40;100627.00;;;;5072979;28;20095;-72
2022/11/01 05:58:13;;;;;;;5.00;2.13;;;22.30;51.80;21.30;100624.00;;;;5070892;28;20123;-73
2022/11/01 06:00:39;;;;;;;6.03;2.63;;;22.30;51.80;21.40;100632.00;;;;5053576;28;20082;-73
2022/11/01 06:03:05;;;;;;;4.53;2.20;;;22.30;51.80;21.40;100632.00;;;;5072094;28;20056;-73
2022/11/01 06:05:31;;;;;;;4.70;2.17;;;22.30;51.80;21.40;100636.00;;;;5054602;28;20032;-72
2022/11/01 06:07:57;;;;;;;3.60;2.13;;;22.30;51.90;21.40;100646.00;;;;5070709;28;20035;-72
2022/11/01 06:10:22;;;;;;;3.80;2.15;;;22.30;51.90;21.40;100640.00;;;;5046422;28;20478;-72
2022/11/01 06:12:48;;;;;;;3.03;1.93;;;22.30;51.90;21.40;100646.00;;;;5053127;28;20032;-72
2022/11/01 06:15:14;;;;;;;4.40;2.23;;;22.30;51.90;21.40;100641.00;;;;5054802;28;20485;-72
2022/11/01 06:17:40;;;;;;;3.93;2.10;;;22.30;51.90;21.40;100650.00;;;;5070876;28;20467;-72
2022/11/01 06:20:06;;;;;;;7.13;2.00;;;22.30;51.90;21.40;100656.00;;;;5072616;28;20056;-72
2022/11/01 06:22:35;;;;;;;3.85;2.03;;;22.30;51.90;21.40;100667.00;;;;5068546;28;20394;-72
2022/11/01 06:25:00;;;;;;;5.00;2.17;;;22.30;51.90;21.40;100671.00;;;;5058480;28;20281;-72
2022/11/01 06:27:27;;;;;;;3.17;2.10;;;22.30;51.90;21.40;100677.00;;;;5066606;28;20183;-73
2022/11/01 06:29:53;;;;;;;2.58;1.75;;;22.20;51.90;21.40;100675.00;;;;5053785;28;20559;-72
2022/11/01 06:32:19;;;;;;;4.70;2.40;;;22.30;51.90;21.40;100684.00;;;;5057850;28;20036;-72
2022/11/01 06:34:44;;;;;;;3.43;1.83;;;22.30;52.00;21.40;100684.00;;;;5065813;28;20100;-73
2022/11/01 06:37:10;;;;;;;3.77;1.90;;;22.30;52.00;21.40;100690.00;;;;5063021;28;20115;-72
2022/11/01 06:39:36;;;;;;;5.23;1.83;;;22.30;52.00;21.40;100697.00;;;;5064948;28;20112;-73
2022/11/01 06:42:02;;;;;;;4.20;2.10;;;22.30;52.00;21.40;100692.00;;;;5064882;28;20021;-72
2022/11/01 06:44:27;;;;;;;2.77;1.70;;;22.30;52.00;21.40;100702.00;;;;5048570;28;20115;-72
2022/11/01 06:46:54;;;;;;;3.40;1.93;;;22.30;52.00;21.40;100717.00;;;;5062373;28;20123;-72
2022/11/01 06:49:20;;;;;;;2.78;1.70;;;22.30;52.00;21.40;100724.00;;;;5067399;28;20090;-73
2022/11/01 06:51:46;;;;;;;4.18;2.65;;;22.30;52.00;21.30;100725.00;;;;5070322;28;20233;-72
2022/11/01 06:54:12;;;;;;;3.35;1.80;;;22.30;52.00;21.30;100728.00;;;;5068461;28;20532;-72
2022/11/01 06:56:37;;;;;;;2.72;1.65;;;22.30;51.80;21.30;100726.00;;;;5071421;28;20024;-72
2022/11/01 06:59:03;;;;;;;3.03;1.40;;;22.30;51.80;21.30;100735.00;;;;5064542;28;20090;-72
2022/11/01 07:01:29;;;;;;;2.92;1.75;;;22.30;51.60;21.20;100741.00;;;;5043448;28;20469;-72
2022/11/01 07:03:55;;;;;;;3.60;1.53;;;22.30;51.50;21.20;100754.00;;;;5047746;28;20485;-72
2022/11/01 07:06:23;;;;;;;2.17;1.40;;;22.20;51.20;21.20;100750.00;;;;5059339;28;20448;-72
2022/11/01 07:08:48;;;;;;;2.75;1.40;;;22.20;51.00;21.20;100763.00;;;;5068542;28;20064;-72
2022/11/01 07:11:14;;;;;;;3.95;1.52;;;22.20;50.80;21.20;100759.00;;;;5055595;28;20106;-72
2022/11/01 07:13:40;;;;;;;2.07;1.30;;;22.20;50.70;21.10;100770.00;;;;5064711;28;20044;-72
2022/11/01 07:16:06;;;;;;;5.03;1.00;;;22.20;50.50;21.10;100774.00;;;;5069174;28;20127;-72
2022/11/01 07:18:33;;;;;;;3.70;1.67;;;22.10;50.50;21.10;100792.00;;;;5057134;28;20391;-73
2022/11/01 07:21:02;;;;;;;4.00;1.30;;;22.10;50.40;21.10;100806.00;;;;5060476;28;20037;-73
2022/11/01 07:23:28;;;;;;;2.10;0.60;;;22.10;50.50;21.10;100819.00;;;;5035592;28;20033;-73
2022/11/01 07:25:54;;;;;;;2.25;0.55;;;22.10;49.10;21.10;100832.00;;;;5066565;28;20553;-73
2022/11/01 07:28:20;;;;;;;6.13;0.70;;;22.00;48.50;21.00;100830.00;;;;5043376;28;20044;-73
2022/11/01 07:30:52;;;;;;;6.50;1.23;;;22.10;48.30;20.90;100822.00;;;;5059983;28;20024;-74
2022/11/01 07:33:18;;;;;;;4.13;1.40;;;22.00;47.80;20.90;100826.00;;;;5056671;28;20045;-73
2022/11/01 07:35:44;;;;;;;6.47;1.20;;;22.00;48.10;20.90;100845.00;;;;5068284;28;20033;-72
2022/11/01 07:38:10;;;;;;;3.27;1.00;;;21.90;48.40;20.90;100848.00;;;;5042705;28;20458;-73
2022/11/01 07:40:36;;;;;;;5.23;0.90;;;21.80;48.50;20.90;100862.00;;;;5022807;28;20466;-73
2022/11/01 07:43:01;;;;;;;1.70;0.43;;;21.80;47.60;20.80;100865.00;;;;5043620;28;20401;-72
2022/11/01 07:45:29;;;;;;;3.47;0.80;;;21.80;47.40;20.60;100864.00;;;;5063432;28;20036;-72
2022/11/01 07:48:05;;;;;;;0.38;0.30;;;21.70;47.20;20.50;100866.00;;;;5047929;28;20535;-73
2022/11/01 07:50:32;;;;;;;1.80;0.67;;;21.70;46.80;20.50;100866.00;;;;5048180;28;20029;-72
2022/11/01 07:53:00;;;;;;;2.83;0.82;;;21.50;47.10;20.40;100870.00;;;;5068987;28;20016;-73
2022/11/01 07:55:25;;;;;;;1.23;0.50;;;21.40;47.00;20.30;100880.00;;;;5070533;28;20027;-72
2022/11/01 07:57:51;;;;;;;1.10;0.50;;;21.40;47.20;20.30;100877.00;;;;5069224;28;20032;-72
2022/11/01 08:00:17;;;;;;;3.43;0.70;;;21.30;47.20;20.30;100887.00;;;;5070322;28;20067;-72
2022/11/01 08:02:43;;;;;;;1.50;0.40;;;21.20;47.10;20.30;100890.00;;;;5068390;28;20118;-72
2022/11/01 08:05:10;;;;;;;2.57;0.50;;;21.20;47.30;20.20;100886.00;;;;5070343;28;20143;-72
2022/11/01 08:07:38;;;;;;;1.77;0.73;;;21.10;47.30;20.20;100893.00;;;;5068607;28;20470;-72
2022/11/01 08:10:09;;;;;;;3.13;0.77;;;21.10;47.30;20.20;100891.00;;;;5057646;28;20036;-73
2022/11/01 08:12:35;;;;;;;0.73;0.40;;;21.00;47.10;20.20;100902.00;;;;5068932;28;20036;-73
2022/11/01 08:15:04;;;;;;;2.23;0.60;;;21.00;47.20;20.20;100897.00;;;;5039981;28;20021;-72
2022/11/01 08:17:32;;;;;;;2.60;0.50;;;21.00;47.30;20.20;100910.00;;;;5067040;28;20025;-73
2022/11/01 08:19:57;;;;;;;0.82;0.32;;;21.00;47.20;20.10;100901.00;;;;5046437;28;20390;-72
2022/11/01 08:22:23;;;;;;;3.77;0.50;;;20.90;47.20;20.10;100912.00;;;;5061335;28;20033;-73
2022/11/01 08:24:49;;;;;;;4.43;0.47;;;20.90;47.20;20.10;100913.00;;;;5050885;28;20107;-73
2022/11/01 08:27:15;;;;;;;3.60;1.33;;;20.90;47.20;20.10;100918.00;;;;5064312;28;20123;-73
2022/11/01 08:29:40;;;;;;;2.87;0.60;;;20.90;47.20;20.10;100924.00;;;;5036617;28;20120;-72
2022/11/01 08:32:06;;;;;;;1.77;0.43;;;20.80;47.20;20.00;100940.00;;;;5061527;28;20104;-73
2022/11/01 08:34:32;;;;;;;3.00;1.00;;;20.80;47.00;20.00;100939.00;;;;5061894;28;20113;-72
2022/11/01 08:36:57;;;;;;;1.97;0.60;;;20.80;46.90;20.00;100928.00;;;;5065800;28;20067;-73
2022/11/01 08:39:24;;;;;;;2.07;0.43;;;20.80;47.10;20.00;100938.00;;;;5067798;28;20039;-73
2022/11/01 08:41:50;;;;;;;;;;;20.80;47.00;19.90;100954.00;;;;5050813;28;20031;-73
2022/11/01 08:44:17;;;;;;;2.00;0.60;;;20.70;47.50;19.90;100960.00;;;;5047749;28;19912;-79
2022/11/01 08:46:43;;;;;;;2.60;0.63;;;20.80;46.90;19.90;100954.00;;;;5069924;28;20089;-74
2022/11/01 08:49:10;;;;;;;4.85;0.70;;;20.70;46.80;19.90;100949.00;;;;5067889;28;20240;-74
2022/11/01 08:51:35;;;;;;;3.38;0.82;;;20.70;47.80;19.90;100960.00;;;;5043855;28;20066;-73
2022/11/01 08:54:01;;;;;;;7.00;0.88;;;20.70;47.00;19.90;100963.00;;;;5069430;28;20351;-73
2022/11/01 08:56:27;;;;;;;3.42;0.90;;;20.60;47.00;19.90;100968.00;;;;5068026;28;20032;-73
2022/11/01 08:58:53;;;;;;;3.30;0.60;;;20.60;46.70;19.80;100972.00;;;;5049252;28;20101;-74
2022/11/01 09:01:20;;;;;;;6.53;1.00;;;20.60;46.70;19.80;100956.00;;;;5009961;28;20028;-73
2022/11/01 09:03:46;;;;;;;5.32;0.77;;;20.60;46.40;19.80;100975.00;;;;5043704;28;20414;-74
2022/11/01 09:06:12;;;;;;;3.53;0.83;;;20.60;46.60;19.80;100960.00;;;;5073939;28;20028;-72
2022/11/01 09:08:38;;;;;;;7.82;0.77;;;20.60;46.60;19.90;100981.00;;;;5066384;28;20458;-72
2022/11/01 09:11:05;;;;;;;1.87;0.47;;;20.60;46.50;19.80;100981.00;;;;5065042;28;20102;-72
2022/11/01 09:13:31;;;;;;;4.25;0.75;;;20.50;46.40;19.80;100980.00;;;;5063497;28;20029;-72
2022/11/01 09:15:57;;;;;;;8.13;1.30;;;20.50;46.20;19.80;100975.00;;;;5062772;28;20028;-72
2022/11/01 09:18:23;;;;;;;8.63;2.17;;;20.50;46.50;19.90;100982.00;;;;5068115;28;20417;-71
2022/11/01 09:20:57;;;;;;;4.43;1.10;;;20.50;46.60;19.90;100995.00;;;;5065564;28;20028;-71
2022/11/01 09:23:23;;;;;;;4.90;0.63;;;20.60;46.40;19.90;100995.00;;;;5056377;28;20234;-72
2022/11/01 09:25:49;;;;;;;3.53;0.87;;;20.60;46.20;19.90;100998.00;;;;5065561;28;20481;-71
2022/11/01 09:28:15;;;;;;;6.80;0.90;;;20.60;46.10;19.90;101002.00;;;;5060653;28;20482;-72
2022/11/01 09:30:40;;;;;;;8.57;2.00;;;20.60;46.20;19.90;101008.00;;;;5062110;28;20902;-71
2022/11/01 09:33:06;;;;;;;3.33;1.20;;;20.60;45.90;19.90;101009.00;;;;5067521;28;20568;-71
2022/11/01 09:35:32;;;;;;;3.13;0.97;;;20.60;46.60;19.90;101005.00;;;;5072109;28;20036;-71
2022/11/01 09:37:59;;;;;;;8.05;1.30;;;20.60;45.70;19.90;101020.00;;;;5053860;28;20024;-72
2022/11/01 09:40:26;;;;;;;7.75;1.00;;;20.60;45.70;19.90;101018.00;;;;5057347;28;20210;-74
2022/11/01 09:42:52;;;;;;;6.18;1.23;;;20.70;45.80;19.90;101021.00;;;;5026822;28;20433;-74
2022/11/01 09:45:20;;;;;;;6.90;1.40;;;20.60;45.70;19.90;101014.00;;;;5055736;28;20029;-75
2022/11/01 09:47:56;;;;;;;4.90;1.40;;;20.60;45.80;19.90;101018.00;;;;5032439;28;20056;-75
2022/11/01 09:50:35;;;;;;;5.82;1.20;;;20.60;45.80;20.00;101014.00;;;;5052281;28;20030;-75
2022/11/01 09:53:02;;;;;;;6.95;1.73;;;20.70;45.80;20.00;101030.00;;;;5039826;28;20032;-73
2022/11/01 09:55:47;;;;;;;12.52;2.13;;;20.70;45.90;20.10;101019.00;;;;5042729;28;20017;-65
2022/11/01 09:58:55;;;;;;;11.63;2.00;;;20.80;45.70;20.10;101043.00;;;;5051617;28;20032;-64
2022/11/01 10:02:00;;;;;;;4.97;1.15;;;20.80;45.80;20.10;101030.00;;;;5039080;28;20035;-64
2022/11/01 10:04:50;;;;;;;10.23;1.50;;;20.90;46.00;20.10;101024.00;;;;5064348;28;20032;-72
2022/11/01 10:07:59;;;;;;;10.98;1.80;;;20.90;46.30;20.20;101048.00;;;;5062416;28;20509;-63
2022/11/01 10:10:37;;;;;;;7.30;1.92;;;21.00;45.80;20.20;101040.00;;;;5047032;28;20115;-63
2022/11/01 10:13:11;;;;;;;5.57;1.73;;;21.00;46.00;20.20;101046.00;;;;5072744;28;20040;-63
2022/11/01 10:15:53;;;;;;;7.43;1.60;;;21.00;46.10;20.30;101048.00;;;;5045173;28;20474;-63
2022/11/01 10:18:30;;;;;;;6.95;1.17;;;21.10;46.10;20.30;101049.00;;;;5050738;28;20078;-66
2022/11/01 10:20:58;;;;;;;6.05;1.38;;;21.10;46.10;20.30;101050.00;;;;5048635;28;20020;-65
2022/11/01 10:23:48;;;;;;;4.10;1.05;;;21.20;46.30;20.40;101057.00;;;;5038009;28;20102;-66
2022/11/01 10:26:26;;;;;;;11.25;1.17;;;21.10;46.20;20.40;101055.00;;;;5054997;28;20055;-66
2022/11/01 10:29:05;;;;;;;6.55;1.30;;;21.20;46.20;20.40;101063.00;;;;5055218;28;20138;-65
2022/11/01 10:31:31;;;;;;;6.90;1.38;;;21.20;46.30;20.40;101057.00;;;;5069789;28;20033;-66
2022/11/01 10:34:22;;;;;;;6.03;1.10;;;21.20;47.00;20.50;101051.00;;;;5057073;28;20478;-66
2022/11/01 10:36:48;;;;;;;7.03;1.45;;;21.30;46.20;20.50;101059.00;;;;5038707;28;20024;-66
2022/11/01 10:39:48;;;;;;;9.00;1.40;;;21.40;46.30;20.50;101071.00;;;;5058671;28;20508;-66
2022/11/01 10:42:15;;;;;;;11.30;1.40;;;21.40;45.60;20.50;101051.00;;;;5046269;28;20083;-65
2022/11/01 10:45:03;;;;;;;9.57;1.50;;;21.40;45.20;20.50;101063.00;;;;5069032;28;20036;-66
2022/11/01 10:47:28;;;;;;;9.82;1.73;;;21.40;45.30;20.50;101072.00;;;;5032127;28;20036;-66
2022/11/01 10:50:02;;;;;;;7.10;1.63;;;21.40;45.60;20.50;101056.00;;;;5052125;28;20037;-66
2022/11/01 10:52:31;;;;;;;11.07;1.40;;;21.40;45.60;20.50;101059.00;;;;5034223;28;20055;-66
2022/11/01 10:54:57;;;;;;;10.13;1.60;;;21.40;45.60;20.50;101059.00;;;;5048596;28;20473;-66
2022/11/01 10:57:32;;;;;;;7.57;1.20;;;21.40;45.60;20.50;101054.00;;;;5047948;28;20033;-66
2022/11/01 11:00:00;;;;;;;6.95;1.17;;;21.30;45.50;20.50;101049.00;;;;5037425;28;20085;-66
2022/11/01 11:02:41;;;;;;;8.55;2.20;;;21.50;46.30;20.50;101057.00;;;;5051233;28;20032;-65
2022/11/01 11:05:14;;;;;;;4.43;1.10;;;21.50;45.60;20.60;101060.00;;;;5042081;28;20052;-65
2022/11/01 11:07:40;;;;;;;6.20;1.15;;;21.40;45.60;20.60;101059.00;;;;5045872;28;20032;-65